Jaime Santiago

Olheiro - Osasuna
4 Jun 2028
Domingo
Processo

Personalidade

Adaptabilidade (1) Ambição (10) Controvérsia (13) Lealdade (8) Pressão (14) Profissionalismo (3) Espírito Esportivo (10) Temperamento (13)

Perfil

Estilo de Treinamento Democrático
Licença Continental C
Determinação 11
Gestão de Pessoas 10
Motivação 13
Disciplina 10
Satisfação no Trabalho
100%
Fadiga
0%
Função Olheiro
Salário 93.8K p/s
Contrato 14.03.2030

Desempenho

Comportamento Bom
Eficácia do Treinamento
51%
Desenvolvimento do Jogador
40%
Prevenção de Lesões
25%
Implementação Tática
25%

Eventos Recentes

Avaliou um jogador agora
Apresentou um dossiê à direção agora

Monitorando agora

60
Jogador Clube Status Habilidade Confiança Observado Última observação Último voto
Martim Cunha Porto Ativo 111 / 122 40% 3 02.06.2028 -
Miguel Figueiredo Benfica Ativo 119 / 141 40% 2 02.06.2028 -
Lennon Miller Udinese Ativo 141 / 152 40% 1 02.06.2028 -
Pablo Santiago Castellón Perdido 129 / 141 79% 1 01.06.2028 -
Matvey Bardachev Zenit Ativo 109 / 121 40% 1 24.01.2028 -
Felipe Faúndez O'Higgins Ativo 96 / 118 40% 1 24.01.2028 -
Bahmed Deuff FC Metz Ativo 123 / 137 40% 2 17.01.2028 -
Josh King Chelsea Ativo 144 / 143 40% 1 17.01.2028 -
Jorge Salinas Racing Santander Ativo 129 / 133 40% 1 17.01.2028 -
Dylan Gorosito Boca Juniors Ativo 114 / 128 40% 4 03.01.2028 -
Vimal Yoganathan Barnsley Ativo 103 / 117 40% 1 01.01.2028 -
Caleb Yirenkyi Coventry City Ativo 140 / 137 40% 1 01.01.2028 -
Nnamdi Obafemi Remo Stars Ativo 107 / 93 40% 1 01.01.2028 -
Wilmar Borja La Equidad Ativo 108 / 109 40% 1 28.08.2027 -
Elias Baum Eintracht Frankfurt Ativo 133 / 134 40% 1 18.08.2027 -
Christ Inao Oulaï Fiorentina Ativo 136 / 153 40% 1 17.08.2027 -
Matías Gómez Talleres Ativo 114 / 141 40% 1 17.08.2027 -
Sascha Britschgi Fiorentina Ativo 121 / 121 40% 1 17.08.2027 -
Alejandro Leiva Beitar Jerusalem Ativo 96 / 112 40% 1 16.08.2027 -
Davide Bartesaghi AC Milan Ativo 142 / 138 40% 1 16.08.2027 -
Juan David Arizala Udinese Ativo 125 / 143 40% 1 16.08.2027 -
Niccolò Fortini Fiorentina Ativo 133 / 140 40% 2 14.08.2027 -
George Abbott Tottenham Ativo 118 / 124 40% 2 10.08.2027 -
Alejandro Almaraz Oviedo Ativo 118 / 112 40% 3 09.08.2027 -
Sergiu Perciun Torino Ativo 105 / 116 40% 2 06.08.2027 -
Simone Kosijer Triestina Ativo 101 / 112 40% 4 02.08.2027 -
Ishé Samuels-Smith Chelsea Ativo 122 / 130 40% 2 30.07.2027 -
Bruno Alves Cruzeiro Ativo 106 / 98 40% 3 29.07.2027 -
Axel Tape Bayer Leverkusen Ativo 128 / 130 40% 4 29.07.2027 -
Andrés Cuenca Como Ativo 106 / 126 40% 2 28.07.2027 -
Brandon Powell Blackburn Rovers Ativo 109 / 115 40% 4 26.07.2027 -
Valentino Massi Sarmiento Ativo 106 / 105 40% 2 26.07.2027 -
Ezra Mayers West Ham United Ativo 122 / 118 40% 2 23.07.2027 -
Juan Morán Godoy Cruz Ativo 108 / 112 40% 1 20.07.2027 -
Dani Calvo Oviedo Ativo 123 / 116 76% 1 19.07.2027 Aprovar
Charlie Tasker Brighton Ativo 104 / 106 40% 1 19.07.2027 -
Rabby Nzingoula West Bromwich Albion Ativo 121 / 120 40% 3 18.07.2027 -
Rio Cardines Crystal Palace Ativo 109 / 119 40% 1 18.07.2027 -
Somto Boniface Ipswich Town Ativo 115 / 121 40% 2 17.07.2027 -
Alen Korošec ND Gorica Ativo 104 / 111 40% 1 13.07.2027 -
Santiago Daniele Chacarita Juniors Ativo 106 / 114 40% 1 29.06.2027 -
Juan Cruz Cortazzo Gimnasia La Plata Ativo 107 / 105 40% 2 21.06.2027 -
Facundo Herrera Boca Juniors Ativo 103 / 124 40% 1 20.06.2027 -
Melker Ellborg Sunderland Ativo 122 / 124 40% 2 31.08.2026 -
Nikita Kokarev Krylya Sovetov Ativo 115 / 128 40% 1 31.08.2026 -
Obed Vargas Atlético Madrid Ativo 113 / 126 40% 2 28.08.2026 -
Elías Báez Atlanta United FC Ativo 110 / 139 40% 1 28.08.2026 -
Yarek Gąsiorowski PSV Ativo 126 / 149 40% 1 28.08.2026 -
Lucas Agazzi Benfica Ativo 127 / 116 40% 1 26.08.2026 Mais informações
Mbekezeli Mbokazi Chicago Fire Ativo 130 / 112 40% 1 26.08.2026 -
Breno Bidon Corinthians Ativo 126 / 140 40% 1 25.08.2026 -
Lucas Cornejo Estudiantes Ativo 113 / 108 40% 1 25.08.2026 -
Robin Risser RC Lens Ativo 129 / 145 40% 2 24.08.2026 -
Edoardo Motta Lazio Ativo 119 / 126 40% 1 24.08.2026 -
João Muniz Sporting CP Ativo 107 / 110 40% 1 23.08.2026 -
Pablo Campos Levante Ativo 132 / 120 40% 1 22.08.2026 -
Chris Brady Chicago Fire Ativo 116 / 149 40% 1 22.08.2026 -
Eliás Montiel Athletic Bilbao Ativo 134 / 126 40% 1 19.08.2026 -
Arthur Avom Ebong FC Lorient Ativo 134 / 133 40% 1 17.08.2026 -
Diego Gaitán Maipú Ativo 102 / 102 40% 1 10.08.2026 -